Time;durP1;ratioP1;P1;durP2;ratioP2;P2;SDS_P1;SDS_P2;PMS_P1;PMS_P2;Temp;Humidity;BMP_temperature;BMP_pressure;BME280_temperature;BME280_humidity;BME280_pressure;Samples;Min_cycle;Max_cycle;Signal;HPM_P1;HPM_P2
2022/01/30 00:02:17;;;;;;;;;7.50;4.00;;;;;8.35;73.79;102804.59;5120177;27;47350;-66
2022/01/30 00:04:43;;;;;;;;;10.50;6.25;;;;;8.28;74.07;102789.56;5120491;27;45406;-66
2022/01/30 00:07:08;;;;;;;;;8.75;3.00;;;;;8.31;74.27;102807.13;5120317;27;45339;-66
2022/01/30 00:09:34;;;;;;;;;3.50;2.00;;;;;8.28;74.70;102809.69;5120444;27;45507;-66
2022/01/30 00:12:02;;;;;;;;;3.25;2.50;;;;;8.23;74.17;102799.06;5120327;27;45441;-66
2022/01/30 00:14:31;;;;;;;;;3.75;2.25;;;;;8.18;74.38;102785.88;5119809;27;45273;-66
2022/01/30 00:17:08;;;;;;;;;6.75;5.00;;;;;8.17;73.98;102796.34;5120322;27;45357;-66
2022/01/30 00:19:47;;;;;;;;;4.00;2.00;;;;;8.19;74.05;102810.34;5120353;27;45474;-66
2022/01/30 00:24:53;;;;;;;;;2.00;1.75;;;;;8.12;73.55;102804.13;5120046;27;45290;-66
2022/01/30 00:27:27;;;;;;;;;3.75;2.25;;;;;8.09;73.96;102808.41;5120130;27;45465;-66
2022/01/30 00:29:52;;;;;;;;;5.50;2.75;;;;;7.99;74.22;102795.09;5120285;27;45526;-66
2022/01/30 00:32:18;;;;;;;;;3.75;2.50;;;;;7.91;74.49;102791.41;5119643;27;47187;-65
2022/01/30 00:34:43;;;;;;;;;7.25;3.75;;;;;7.96;75.19;102796.78;5120169;27;46136;-66
2022/01/30 00:37:09;;;;;;;;;6.00;3.00;;;;;7.88;74.93;102791.34;5120016;27;45281;-66
2022/01/30 00:39:34;;;;;;;;;6.00;2.00;;;;;7.95;75.30;102797.63;5119886;27;45391;-66
2022/01/30 00:42:00;;;;;;;;;6.00;2.75;;;;;7.98;75.09;102816.06;5119790;27;45369;-66
2022/01/30 00:44:25;;;;;;;;;2.50;2.50;;;;;7.94;75.08;102799.34;5119399;27;45333;-66
2022/01/30 00:46:51;;;;;;;;;2.50;1.00;;;;;7.94;74.57;102804.59;5120038;27;45416;-66
2022/01/30 00:49:16;;;;;;;;;11.50;4.50;;;;;7.88;75.30;102790.47;5120046;27;45371;-66
2022/01/30 00:51:42;;;;;;;;;3.25;3.25;;;;;7.93;75.29;102808.09;5119313;27;46426;-66
2022/01/30 00:54:07;;;;;;;;;4.75;4.75;;;;;7.87;75.28;102802.72;5119640;27;45418;-66
2022/01/30 00:56:33;;;;;;;;;7.00;3.25;;;;;7.82;75.35;102793.84;5119716;27;45958;-66
2022/01/30 00:58:58;;;;;;;;;6.25;3.25;;;;;7.77;74.80;102798.09;5119620;27;45337;-66
2022/01/30 01:01:23;;;;;;;;;2.50;2.50;;;;;7.76;75.56;102783.25;5119379;27;46498;-66
2022/01/30 01:03:49;;;;;;;;;2.25;1.50;;;;;7.79;75.52;102799.03;5118419;27;45285;-66
2022/01/30 01:06:14;;;;;;;;;10.25;5.25;;;;;7.71;75.65;102787.47;5100854;27;45450;-66
2022/01/30 01:08:59;;;;;;;;;1.75;1.75;;;;;7.78;75.63;102805.13;5119760;27;45372;-66
2022/01/30 01:24:13;;;;;;;;;8.00;3.25;;;;;7.54;75.65;102797.56;5119197;27;45419;-66
2022/01/30 01:26:38;;;;;;;;;6.75;5.00;;;;;7.51;76.01;102803.66;5119204;27;45426;-66
2022/01/30 01:29:06;;;;;;;;;4.00;3.00;;;;;7.47;76.01;102800.06;5119048;27;45441;-66
2022/01/30 01:31:31;;;;;;;;;9.50;3.00;;;;;7.50;76.29;102809.75;5118619;27;46250;-66
2022/01/30 01:34:10;;;;;;;;;4.25;2.25;;;;;7.43;75.91;102807.81;5118929;27;45347;-66
2022/01/30 01:36:36;;;;;;;;;5.00;3.00;;;;;7.20;76.43;102781.94;5118964;27;45359;-66
2022/01/30 01:39:02;;;;;;;;;4.00;4.00;;;;;7.42;76.09;102813.91;5119181;27;45446;-66
2022/01/30 01:41:29;;;;;;;;;8.25;4.00;;;;;7.41;76.35;102817.41;5118688;27;46613;-66
2022/01/30 01:43:55;;;;;;;;;9.00;5.50;;;;;7.35;76.56;102818.13;5118591;27;45581;-66
2022/01/30 01:46:25;;;;;;;;;8.00;3.75;;;;;7.38;76.58;102839.16;5118865;27;45314;-66
2022/01/30 01:48:52;;;;;;;;;6.25;4.75;;;;;7.33;76.73;102832.91;5119115;27;45306;-66
2022/01/30 01:51:22;;;;;;;;;4.75;3.75;;;;;7.33;76.47;102840.78;5118540;27;45475;-66
2022/01/30 01:53:50;;;;;;;;;8.00;5.50;;;;;7.29;76.76;102841.53;5118690;27;45249;-66
2022/01/30 01:56:17;;;;;;;;;5.75;4.00;;;;;7.21;76.92;102836.13;5118854;27;45569;-66
2022/01/30 01:58:43;;;;;;;;;10.25;2.75;;;;;7.23;77.05;102833.53;5118852;27;45473;-66
2022/01/30 02:01:08;;;;;;;;;4.50;2.00;;;;;7.25;77.14;102847.59;5118239;27;45461;-66
2022/01/30 02:03:36;;;;;;;;;8.00;2.75;;;;;7.02;77.04;102821.69;5118327;27;45318;-66
2022/01/30 02:06:03;;;;;;;;;4.00;2.50;;;;;7.11;77.18;102847.22;5118660;27;45423;-66
2022/01/30 02:11:58;;;;;;;;;3.00;2.00;;;;;7.06;77.43;102854.97;5118182;27;45493;-66
2022/01/30 02:14:13;;;;;;;;;11.75;4.50;;;;;7.18;77.72;102864.00;5103997;27;45304;-66
2022/01/30 02:25:33;;;;;;;;;2.25;2.00;;;;;7.10;77.99;102862.06;5122056;27;45451;-65
2022/01/30 02:27:43;;;;;;;;;5.50;3.00;;;;;6.97;78.39;102852.09;5121567;27;45282;-65
2022/01/30 02:30:18;;;;;;;;;6.50;4.00;;;;;6.98;78.60;102840.78;5122149;27;45473;-65
2022/01/30 02:32:45;;;;;;;;;7.75;4.00;;;;;7.07;78.51;102864.59;5121632;27;45547;-65
2022/01/30 02:35:11;;;;;;;;;8.25;3.00;;;;;7.06;78.24;102862.81;5121694;27;45365;-65
2022/01/30 02:37:36;;;;;;;;;9.25;3.25;;;;;7.05;78.53;102861.03;5121712;27;45747;-65
2022/01/30 02:40:06;;;;;;;;;3.75;2.50;;;;;7.03;78.43;102859.22;5122063;27;45478;-65
2022/01/30 02:42:34;;;;;;;;;6.25;3.75;;;;;6.96;78.53;102853.84;5121493;27;46514;-66
2022/01/30 02:45:03;;;;;;;;;9.25;3.50;;;;;7.02;78.28;102857.47;5121409;27;45310;-65
2022/01/30 02:50:32;;;;;;;;;2.50;2.25;;;;;6.93;78.37;102845.03;5121928;27;45304;-66
2022/01/30 02:52:58;;;;;;;;;3.50;3.50;;;;;6.92;78.38;102851.09;5121287;27;46063;-65
2022/01/30 02:55:24;;;;;;;;;12.75;4.75;;;;;6.88;78.75;102844.88;5121503;27;45808;-65
2022/01/30 02:57:49;;;;;;;;;6.50;3.25;;;;;6.93;78.76;102845.03;5121517;27;45282;-65
2022/01/30 03:00:15;;;;;;;;;10.25;4.00;;;;;6.79;78.86;102826.31;5121454;27;45403;-65
2022/01/30 03:02:40;;;;;;;;;6.50;3.25;;;;;6.77;78.83;102831.50;5121215;27;46704;-65
2022/01/30 03:05:06;;;;;;;;;8.75;3.00;;;;;6.84;79.12;102844.75;5121433;27;45162;-65
2022/01/30 03:07:32;;;;;;;;;4.75;1.50;;;;;6.75;78.90;102833.22;5121412;27;45319;-65
2022/01/30 03:09:57;;;;;;;;;4.75;2.00;;;;;6.71;79.03;102827.84;5121307;27;45306;-65
2022/01/30 03:12:23;;;;;;;;;7.25;2.25;;;;;6.83;79.05;102853.50;5121271;27;46729;-65
2022/01/30 03:14:48;;;;;;;;;4.00;4.00;;;;;6.40;78.91;102782.50;5120828;27;45387;-65
2022/01/30 03:17:14;;;;;;;;;4.00;2.50;;;;;6.79;79.24;102848.13;5121487;27;45662;-65
2022/01/30 03:19:39;;;;;;;;;4.00;2.25;;;;;6.71;79.33;102833.06;5121383;27;45507;-65
2022/01/30 03:22:04;;;;;;;;;5.75;4.00;;;;;6.75;79.45;102848.94;5121044;27;45566;-65
2022/01/30 03:24:37;;;;;;;;;4.75;2.25;;;;;6.73;79.43;102849.72;5120883;27;45318;-65
2022/01/30 03:27:08;;;;;;;;;6.50;3.00;;;;;6.59;79.55;102818.81;5120459;27;45279;-65
2022/01/30 03:29:34;;;;;;;;;7.00;2.50;;;;;6.68;79.69;102840.84;5120941;27;45425;-65
2022/01/30 03:32:00;;;;;;;;;5.50;4.00;;;;;6.66;80.06;102847.78;5120793;27;46392;-65
2022/01/30 03:34:26;;;;;;;;;7.25;3.50;;;;;6.58;80.14;102840.59;5120989;27;45412;-65
2022/01/30 03:36:52;;;;;;;;;7.00;3.00;;;;;6.52;80.17;102829.97;5120931;27;45395;-65
2022/01/30 03:39:17;;;;;;;;;7.75;3.50;;;;;6.56;80.08;102834.41;5121095;27;45213;-66
2022/01/30 03:41:43;;;;;;;;;6.75;3.50;;;;;6.52;80.01;102831.69;5120675;27;45325;-65
2022/01/30 03:44:08;;;;;;;;;3.25;3.00;;;;;6.40;80.01;102819.16;5120899;27;45212;-66
2022/01/30 03:46:34;;;;;;;;;4.00;2.00;;;;;6.52;80.12;102850.91;5120565;27;45585;-65
2022/01/30 03:48:59;;;;;;;;;3.50;1.50;;;;;6.48;80.12;102835.06;5121015;27;45402;-65
2022/01/30 03:51:24;;;;;;;;;5.50;3.00;;;;;6.43;80.43;102838.47;5101694;27;45750;-65
2022/01/30 03:53:50;;;;;;;;;5.75;2.75;;;;;6.51;80.61;102853.50;5120441;27;45587;-65
2022/01/30 03:56:15;;;;;;;;;3.75;3.75;;;;;6.48;80.79;102841.19;5120723;27;45462;-66
2022/01/30 03:58:40;;;;;;;;;13.50;8.00;;;;;6.40;81.08;102830.50;5120702;27;45338;-66
2022/01/30 04:01:06;;;;;;;;;8.75;7.25;;;;;6.41;80.67;102837.50;5120143;27;46420;-66
2022/01/30 04:03:32;;;;;;;;;19.33;14.33;;;;;6.36;80.69;102825.13;5120192;27;45322;-66
2022/01/30 04:05:57;;;;;;;;;17.00;12.50;;;;;6.37;80.68;102834.75;5120333;27;45311;-66
2022/01/30 04:08:23;;;;;;;;;42.33;33.67;;;;;6.45;80.67;102857.69;5120614;27;45423;-66
2022/01/30 04:10:49;;;;;;;;;29.00;26.00;;;;;6.40;80.90;102843.56;5120236;27;45322;-66
2022/01/30 04:13:14;;;;;;;;;29.33;23.33;;;;;6.47;80.71;102854.25;5120175;27;45423;-66
2022/01/30 04:15:40;;;;;;;;;24.33;12.67;;;;;6.52;80.47;102857.84;5119879;27;45513;-66
2022/01/30 04:18:06;;;;;;;;;18.25;14.00;;;;;6.51;80.32;102867.44;5120199;27;45186;-65
2022/01/30 04:20:32;;;;;;;;;18.00;9.25;;;;;6.47;80.54;102865.59;5119949;27;46629;-66
2022/01/30 04:22:57;;;;;;;;;15.75;8.00;;;;;6.20;80.83;102826.41;5119823;27;45448;-66
2022/01/30 04:25:23;;;;;;;;;9.25;4.50;;;;;6.44;80.75;102875.97;5120061;27;45762;-66
2022/01/30 04:27:49;;;;;;;;;13.00;8.75;;;;;6.40;80.64;102874.97;5120084;27;45371;-66
2022/01/30 04:30:15;;;;;;;;;8.50;4.50;;;;;6.32;81.09;102872.97;5119583;27;45483;-65
2022/01/30 04:32:43;;;;;;;;;7.50;4.00;;;;;6.35;81.15;102881.81;5119760;27;45363;-66
2022/01/30 04:35:14;;;;;;;;;11.25;3.50;;;;;6.36;80.69;102881.00;5119999;27;45482;-65
2022/01/30 04:37:58;;;;;;;;;5.50;3.25;;;;;6.34;80.99;102885.28;5120010;27;45521;-66
2022/01/30 05:09:50;;;;;;;;;4.00;3.00;;;;;6.17;81.80;102903.09;5055855;28;45431;-66
2022/01/30 05:12:16;;;;;;;;;4.00;3.25;;;;;6.11;81.75;102897.66;5055466;28;46141;-66
2022/01/30 05:14:42;;;;;;;;;2.75;2.75;;;;;6.12;81.63;102899.44;5055373;28;45401;-66
2022/01/30 05:17:08;;;;;;;;;7.50;2.50;;;;;6.01;81.90;102890.38;5055434;28;45298;-65
2022/01/30 05:19:33;;;;;;;;;7.50;3.00;;;;;5.85;81.89;102866.34;5055881;28;45383;-65
2022/01/30 05:21:59;;;;;;;;;3.50;2.75;;;;;5.97;82.06;102889.41;5055310;28;46365;-65
2022/01/30 05:24:25;;;;;;;;;4.50;4.00;;;;;5.97;81.77;102905.09;5055243;28;46059;-65
2022/01/30 05:26:51;;;;;;;;;2.00;2.00;;;;;6.00;81.58;102913.03;5055814;28;45350;-65
2022/01/30 05:29:17;;;;;;;;;8.50;3.75;;;;;5.73;81.67;102869.44;5055811;28;45316;-65
2022/01/30 05:31:43;;;;;;;;;8.00;4.00;;;;;5.91;82.13;102910.97;5054957;28;46436;-65
2022/01/30 05:34:10;;;;;;;;;7.50;7.50;;;;;5.92;82.06;102922.31;5054959;28;45420;-65
2022/01/30 05:36:38;;;;;;;;;10.25;5.25;;;;;5.89;82.17;102920.47;5055412;28;45357;-65
2022/01/30 05:39:04;;;;;;;;;8.25;6.50;;;;;5.83;82.74;102915.06;5118982;27;45326;-66
2022/01/30 05:41:31;;;;;;;;;8.25;6.75;;;;;5.80;82.47;102908.88;5118756;27;46196;-66
2022/01/30 05:43:59;;;;;;;;;6.25;5.25;;;;;5.82;82.68;102913.28;5118588;27;45549;-65
2022/01/30 05:46:40;;;;;;;;;5.50;3.00;;;;;5.80;82.48;102909.75;5118830;27;45434;-65
2022/01/30 05:49:06;;;;;;;;;7.25;3.25;;;;;5.79;82.47;102918.41;5119280;27;45229;-65
2022/01/30 05:51:32;;;;;;;;;12.00;12.00;;;;;5.70;82.51;102903.31;5118244;27;45272;-65
2022/01/30 05:53:57;;;;;;;;;12.75;7.00;;;;;5.73;83.06;102913.88;5118784;27;45228;-65
2022/01/30 05:56:22;;;;;;;;;6.25;4.75;;;;;5.73;83.21;102908.66;5118629;27;45344;-66
2022/01/30 05:58:48;;;;;;;;;8.75;7.25;;;;;5.73;83.29;102913.88;5118875;27;45447;-66
2022/01/30 06:01:13;;;;;;;;;7.00;3.00;;;;;5.65;82.59;102907.53;5118346;27;45923;-66
2022/01/30 06:03:39;;;;;;;;;5.50;4.50;;;;;5.63;82.88;102914.41;5118342;27;45336;-66
2022/01/30 06:06:05;;;;;;;;;10.00;4.00;;;;;5.66;83.43;102926.69;5118891;27;45384;-66
2022/01/30 06:11:06;;;;;;;;;6.00;3.00;;;;;5.67;82.36;102925.88;5118313;27;45862;-66
2022/01/30 06:13:31;;;;;;;;;13.00;7.00;;;;;5.60;83.00;102932.63;5118204;27;45321;-66
2022/01/30 06:15:57;;;;;;;;;9.25;3.75;;;;;5.52;82.57;102934.09;5118204;27;45426;-66
2022/01/30 06:18:23;;;;;;;;;7.25;4.00;;;;;5.54;83.39;102943.75;5118078;27;45458;-66
2022/01/30 06:20:49;;;;;;;;;8.75;8.00;;;;;5.49;82.96;102937.50;5118194;27;45571;-66
2022/01/30 06:23:15;;;;;;;;;7.00;7.00;;;;;5.39;83.21;102936.28;5118254;27;45422;-66
2022/01/30 06:25:40;;;;;;;;;7.00;6.00;;;;;5.33;84.02;102925.63;5118231;27;45277;-66
2022/01/30 06:28:05;;;;;;;;;9.25;6.25;;;;;5.37;83.50;102939.69;5117809;27;45212;-66
2022/01/30 06:30:31;;;;;;;;;7.25;6.75;;;;;5.37;83.96;102937.06;5118066;27;46479;-66
2022/01/30 06:32:56;;;;;;;;;14.50;8.25;;;;;5.27;84.18;102921.91;5117798;27;45388;-67
2022/01/30 06:35:22;;;;;;;;;8.50;6.50;;;;;5.34;84.89;102940.44;5117834;27;45276;-66
2022/01/30 06:37:47;;;;;;;;;18.25;11.25;;;;;4.94;84.01;102872.91;5117590;27;45356;-67
2022/01/30 06:40:12;;;;;;;;;20.67;15.00;;;;;5.23;84.15;102934.88;5108644;27;45443;-65
2022/01/30 06:42:38;;;;;;;;;12.00;9.00;;;;;5.30;84.58;102958.59;5108058;27;45784;-65
2022/01/30 06:45:05;;;;;;;;;15.50;10.75;;;;;5.31;84.83;102956.03;5097520;27;45334;-66
2022/01/30 06:47:30;;;;;;;;;9.00;6.50;;;;;5.28;84.30;102962.88;5108113;27;45428;-66
2022/01/30 06:49:56;;;;;;;;;8.75;7.75;;;;;5.29;84.31;102967.28;5117975;27;46160;-65
2022/01/30 06:52:21;;;;;;;;;14.50;8.00;;;;;5.24;84.03;102972.31;5117274;27;45440;-66
2022/01/30 06:54:46;;;;;;;;;9.75;7.25;;;;;5.21;83.87;102961.75;5117741;27;45988;-66
2022/01/30 06:57:12;;;;;;;;;8.50;7.00;;;;;5.22;83.94;102977.47;5117678;27;45474;-66
2022/01/30 06:59:37;;;;;;;;;10.50;7.00;;;;;5.23;84.33;102984.50;5117627;27;45493;-66
2022/01/30 07:02:03;;;;;;;;;9.25;8.00;;;;;5.19;84.51;102977.38;5118480;27;45728;-66
2022/01/30 07:04:28;;;;;;;;;11.75;8.75;;;;;5.11;83.97;102973.63;5121139;27;45393;-67
2022/01/30 07:06:54;;;;;;;;;12.33;8.67;;;;;5.10;84.34;102974.44;5121315;27;45355;-67
2022/01/30 07:09:20;;;;;;;;;12.25;10.25;;;;;5.15;84.70;102972.88;5120613;27;47088;-66
2022/01/30 07:11:45;;;;;;;;;8.25;8.00;;;;;5.13;83.98;102971.94;5120458;27;45376;-67
2022/01/30 07:14:11;;;;;;;;;14.25;9.00;;;;;5.11;84.27;102973.63;5120675;27;45516;-67
2022/01/30 07:16:36;;;;;;;;;8.75;7.75;;;;;5.07;83.44;102966.50;5121192;27;45329;-67
2022/01/30 07:19:01;;;;;;;;;12.75;7.75;;;;;5.03;84.21;102972.44;5121177;27;45564;-67
2022/01/30 07:21:27;;;;;;;;;15.00;8.00;;;;;4.98;84.73;102972.28;5120911;27;45349;-67
2022/01/30 07:23:52;;;;;;;;;17.25;6.00;;;;;4.99;84.62;102975.78;5120876;27;45381;-67
2022/01/30 07:26:17;;;;;;;;;11.50;9.00;;;;;5.03;84.35;102986.38;5121202;27;45285;-67
2022/01/30 07:28:43;;;;;;;;;13.33;9.67;;;;;4.69;85.01;102940.78;5120659;27;45472;-67
2022/01/30 07:31:08;;;;;;;;;12.75;10.50;;;;;4.84;85.51;102963.94;5120640;27;45325;-67
2022/01/30 07:33:35;;;;;;;;;8.00;6.00;;;;;4.96;85.09;102980.88;5120542;27;45829;-67
2022/01/30 07:36:02;;;;;;;;;12.25;10.00;;;;;5.02;85.39;102986.31;5120793;27;45375;-67
2022/01/30 07:38:27;;;;;;;;;11.67;7.33;;;;;4.90;85.00;102965.00;5120372;27;46266;-67
2022/01/30 07:40:53;;;;;;;;;20.67;16.00;;;;;5.05;84.52;102995.19;5120546;27;45277;-67
2022/01/30 07:43:19;;;;;;;;;15.33;11.67;;;;;5.00;85.26;102980.19;5121068;27;45249;-67
2022/01/30 07:45:45;;;;;;;;;13.67;13.33;;;;;5.05;84.83;102991.66;5121014;27;45612;-67
2022/01/30 07:48:10;;;;;;;;;8.50;8.50;;;;;5.08;85.10;102993.50;5120520;27;46242;-67
2022/01/30 07:50:36;;;;;;;;;12.00;10.25;;;;;4.98;85.01;102989.66;5119743;27;45344;-67
2022/01/30 07:53:01;;;;;;;;;12.75;8.00;;;;;4.94;85.27;102991.28;5120439;27;45391;-67
2022/01/30 07:55:27;;;;;;;;;17.50;9.00;;;;;5.12;85.12;103011.06;5120781;27;45376;-67
2022/01/30 07:57:52;;;;;;;;;6.75;6.75;;;;;5.11;84.95;103002.34;5120320;27;45937;-67
2022/01/30 08:00:18;;;;;;;;;10.25;7.75;;;;;5.13;84.34;102998.06;5119967;27;45421;-67
2022/01/30 08:02:43;;;;;;;;;15.00;10.33;;;;;5.09;84.41;102992.69;5120153;27;45331;-66
2022/01/30 08:05:09;;;;;;;;;12.00;10.33;;;;;5.40;83.98;103021.66;5120563;27;45383;-67
2022/01/30 08:07:34;;;;;;;;;14.67;11.67;;;;;5.38;82.98;103010.25;5120564;27;46776;-67
2022/01/30 08:10:00;;;;;;;;;25.67;19.67;;;;;5.34;83.24;103004.88;5119857;27;45351;-67
2022/01/30 08:12:25;;;;;;;;;16.33;13.00;;;;;5.40;83.37;103018.16;5120169;27;45374;-67
2022/01/30 08:14:51;;;;;;;;;17.00;9.33;;;;;5.39;84.31;103019.88;5120302;27;45497;-67
2022/01/30 08:17:21;;;;;;;;;9.00;8.75;;;;;5.41;83.44;103017.31;5119758;27;45487;-67
2022/01/30 08:19:47;;;;;;;;;18.50;13.00;;;;;5.44;83.82;103021.78;5119916;27;45344;-66
2022/01/30 08:22:14;;;;;;;;;13.25;10.75;;;;;5.53;83.58;103003.78;5119861;27;45215;-66
2022/01/30 08:24:39;;;;;;;;;17.67;11.67;;;;;6.12;82.17;103027.59;5120223;27;45285;-67
2022/01/30 08:27:05;;;;;;;;;16.00;10.00;;;;;6.53;80.45;103033.25;5120177;27;45393;-67
2022/01/30 08:29:31;;;;;;;;;14.67;13.00;;;;;7.27;78.06;103045.91;5119397;27;45365;-67
2022/01/30 08:31:58;;;;;;;;;15.00;10.25;;;;;7.76;74.82;103041.09;5119461;27;45748;-67
2022/01/30 08:34:23;;;;;;;;;11.50;10.50;;;;;7.87;74.03;103036.16;5120185;27;45304;-67
2022/01/30 08:36:49;;;;;;;;;12.00;10.50;;;;;7.92;73.39;103036.28;5119697;27;45345;-67
2022/01/30 08:39:14;;;;;;;;;28.67;22.67;;;;;7.89;72.30;103016.09;5119521;27;45511;-67
2022/01/30 08:41:39;;;;;;;;;16.33;14.33;;;;;7.82;73.14;103032.50;5119969;27;45425;-67
2022/01/30 08:44:05;;;;;;;;;10.00;7.50;;;;;7.77;72.81;103047.22;5120159;27;45316;-67
2022/01/30 08:46:30;;;;;;;;;10.75;9.25;;;;;7.81;74.21;103046.47;5119626;27;46331;-66
2022/01/30 08:48:56;;;;;;;;;18.33;16.00;;;;;7.89;71.89;103037.06;5119377;27;45368;-66
2022/01/30 08:51:22;;;;;;;;;20.67;17.33;;;;;7.88;73.70;103050.16;5119762;27;45391;-66
2022/01/30 08:53:47;;;;;;;;;22.67;16.33;;;;;7.61;73.55;103033.72;5117760;27;45366;-65
2022/01/30 08:56:13;;;;;;;;;15.50;12.00;;;;;7.66;73.75;103049.59;5119325;27;46206;-67
2022/01/30 08:58:38;;;;;;;;;14.50;12.00;;;;;7.99;73.07;103043.44;5118909;27;45343;-67
2022/01/30 09:01:04;;;;;;;;;11.33;10.00;;;;;8.20;71.14;103050.94;5118969;27;45371;-66
2022/01/30 09:03:29;;;;;;;;;11.25;9.50;;;;;8.56;71.34;103043.94;5119213;27;45387;-68
2022/01/30 09:05:55;;;;;;;;;18.33;12.00;;;;;8.64;70.17;103050.25;5118931;27;46284;-67
2022/01/30 09:08:20;;;;;;;;;22.00;19.33;;;;;8.28;70.28;103040.66;5118850;27;45801;-67
2022/01/30 09:10:46;;;;;;;;;14.67;11.67;;;;;8.13;73.02;103043.78;5119106;27;45311;-67
2022/01/30 09:13:12;;;;;;;;;17.67;12.00;;;;;8.17;71.38;103049.13;5112780;27;45517;-65
2022/01/30 09:15:40;;;;;;;;;16.33;12.00;;;;;8.38;70.99;103045.28;5079783;27;45522;-65
2022/01/30 09:18:09;;;;;;;;;21.00;16.00;;;;;8.65;69.50;103050.28;5075030;28;45358;-66
2022/01/30 09:20:37;;;;;;;;;20.67;16.00;;;;;9.02;69.46;103061.59;5078034;28;45242;-66
2022/01/30 09:23:04;;;;;;;;;17.33;16.00;;;;;8.83;68.16;103034.06;5076949;28;45378;-68
2022/01/30 09:25:30;;;;;;;;;15.33;14.00;;;;;9.16;68.43;103045.22;5076172;28;45424;-66
2022/01/30 09:27:55;;;;;;;;;22.67;13.67;;;;;9.47;66.29;103040.56;5077640;28;45306;-67
2022/01/30 09:30:20;;;;;;;;;19.67;15.33;;;;;9.62;66.15;103047.88;5076789;28;45321;-65
2022/01/30 09:32:47;;;;;;;;;21.00;15.75;;;;;9.78;65.48;103063.06;5077374;28;45411;-65
2022/01/30 09:35:12;;;;;;;;;17.33;15.00;;;;;9.66;67.57;103057.59;5074527;28;47271;-66
2022/01/30 09:37:38;;;;;;;;;28.00;24.33;;;;;9.43;67.44;103059.78;5074430;28;45406;-67
2022/01/30 09:40:05;;;;;;;;;23.00;21.00;;;;;9.44;66.68;103048.41;5074854;28;45431;-67
2022/01/30 09:42:31;;;;;;;;;22.33;19.33;;;;;9.29;67.60;103054.25;5073581;28;45489;-65
2022/01/30 09:45:03;;;;;;;;;51.33;39.00;;;;;9.15;67.42;103067.09;5076186;28;45739;-65
2022/01/30 09:47:30;;;;;;;;;27.00;23.00;;;;;9.07;67.98;103059.06;5076132;28;45389;-65
2022/01/30 09:49:58;;;;;;;;;21.00;17.00;;;;;9.28;67.27;103053.38;5077313;27;45522;-66
2022/01/30 09:52:23;;;;;;;;;30.67;22.00;;;;;10.27;66.02;103055.13;5075837;28;45535;-67
2022/01/30 09:54:49;;;;;;;;;25.67;21.67;;;;;10.66;62.61;103038.19;5077138;28;47290;-64
2022/01/30 09:57:15;;;;;;;;;14.00;14.00;;;;;10.72;63.61;103054.06;5076882;28;45507;-65
2022/01/30 09:59:40;;;;;;;;;28.33;18.00;;;;;10.58;62.65;103045.94;5077529;28;45144;-67
2022/01/30 10:02:08;;;;;;;;;36.00;25.00;;;;;10.82;61.95;103063.00;5076927;27;45472;-67
2022/01/30 10:04:34;;;;;;;;;28.33;18.33;;;;;11.37;61.25;103068.06;5082471;27;45559;-67
2022/01/30 10:07:06;;;;;;;;;19.33;16.00;;;;;12.42;59.01;103066.41;5077056;28;45413;-65
2022/01/30 10:09:36;;;;;;;;;18.00;12.67;;;;;13.80;57.08;103062.59;5076982;27;45377;-65
2022/01/30 10:12:14;;;;;;;;;23.33;19.00;;;;;14.84;52.95;103041.28;5077089;28;45469;-67
2022/01/30 10:15:04;;;;;;;;;18.33;13.33;;;;;15.28;50.11;103064.09;5086310;27;45507;-66
2022/01/30 10:17:32;;;;;;;;;18.00;14.00;;;;;14.99;49.96;103046.53;5089587;27;45369;-66
2022/01/30 10:20:01;;;;;;;;;19.33;15.33;;;;;14.76;50.20;103057.22;5101386;27;45398;-66
2022/01/30 10:22:27;;;;;;;;;21.67;17.00;;;;;14.11;51.47;103052.00;5116298;27;45328;-67
2022/01/30 10:24:52;;;;;;;;;15.75;11.75;;;;;13.62;51.36;103054.59;5104326;27;46725;-66
2022/01/30 10:27:24;;;;;;;;;19.33;16.00;;;;;13.24;53.93;103073.03;5109710;27;45345;-66
2022/01/30 10:29:57;;;;;;;;;14.25;10.25;;;;;12.95;56.30;103062.28;5107915;27;45447;-67
2022/01/30 10:32:22;;;;;;;;;11.00;7.75;;;;;12.49;53.58;103051.47;5116101;27;45509;-66
2022/01/30 10:34:58;;;;;;;;;16.00;14.67;;;;;12.17;56.73;103068.00;5116417;27;45943;-67
2022/01/30 10:37:24;;;;;;;;;13.00;10.50;;;;;11.90;56.89;103053.63;5119142;27;45260;-67
2022/01/30 10:39:59;;;;;;;;;6.25;5.50;;;;;11.58;57.18;103034.88;5120748;27;45363;-66
2022/01/30 10:42:39;;;;;;;;;14.33;12.33;;;;;11.78;59.09;103062.34;5120893;27;45550;-67
2022/01/30 10:45:09;;;;;;;;;9.00;8.00;;;;;11.80;59.84;103047.38;5120872;27;46441;-67
2022/01/30 10:47:36;;;;;;;;;12.25;8.25;;;;;11.83;58.19;103041.25;5121291;27;45473;-67
2022/01/30 10:50:08;;;;;;;;;8.50;5.00;;;;;11.85;58.65;103045.69;5121323;27;45221;-68
2022/01/30 10:52:33;;;;;;;;;11.75;7.50;;;;;11.84;58.51;103050.94;5121328;27;45538;-68
2022/01/30 10:55:05;;;;;;;;;15.50;9.00;;;;;11.80;58.41;103057.06;5120459;27;45402;-68
2022/01/30 10:57:39;;;;;;;;;16.67;12.33;;;;;11.66;58.71;103039.34;5121116;27;45403;-67
2022/01/30 11:00:05;;;;;;;;;11.00;9.00;;;;;11.72;59.11;103051.72;5120878;27;45581;-67
2022/01/30 11:02:38;;;;;;;;;14.50;11.75;;;;;11.68;59.09;103049.91;5120457;27;45395;-67
2022/01/30 11:05:07;;;;;;;;;13.25;7.25;;;;;11.57;58.06;103038.38;5120749;27;45392;-70
2022/01/30 11:07:37;;;;;;;;;9.75;6.50;;;;;11.52;59.64;103045.34;5120468;27;45435;-68
2022/01/30 11:10:17;;;;;;;;;7.00;4.00;;;;;11.26;58.16;103038.91;5120960;27;45469;-68
2022/01/30 11:13:08;;;;;;;;;7.75;3.00;;;;;11.12;58.90;103041.41;5120781;27;45383;-67
2022/01/30 11:15:39;;;;;;;;;8.25;5.00;;;;;10.92;59.93;103038.53;5102279;27;46678;-67
2022/01/30 11:18:05;;;;;;;;;7.50;4.50;;;;;10.80;59.98;103039.25;5100065;27;45800;-68
2022/01/30 11:20:34;;;;;;;;;3.00;3.00;;;;;10.67;59.00;103020.59;5099944;27;45309;-71
2022/01/30 11:23:02;;;;;;;;;10.75;9.25;;;;;10.62;60.22;103021.41;5100156;27;45310;-68
2022/01/30 11:25:35;;;;;;;;;13.50;6.75;;;;;10.69;61.05;103032.03;5099774;27;46567;-68
2022/01/30 11:28:04;;;;;;;;;5.50;4.25;;;;;10.66;61.88;103025.00;5099759;27;45317;-71
2022/01/30 11:30:32;;;;;;;;;7.25;5.00;;;;;10.53;61.45;103007.22;5099919;27;45423;-70
2022/01/30 11:32:58;;;;;;;;;7.50;5.00;;;;;10.48;59.79;103014.19;5100175;27;45309;-71
2022/01/30 11:35:24;;;;;;;;;9.25;7.50;;;;;10.50;59.69;103020.38;5099621;27;45314;-76
2022/01/30 11:37:50;;;;;;;;;7.50;6.50;;;;;10.42;60.30;103015.88;5099547;27;45270;-72
2022/01/30 11:40:18;;;;;;;;;9.25;5.75;;;;;10.43;59.92;103007.09;5100241;27;45539;-70
2022/01/30 11:42:47;;;;;;;;;7.75;3.75;;;;;10.41;60.96;103003.59;5100161;27;45454;-67
2022/01/30 11:45:21;;;;;;;;;5.00;5.00;;;;;10.42;60.66;103007.97;5099720;27;46519;-67
2022/01/30 11:48:03;;;;;;;;;13.67;12.67;;;;;10.34;58.65;102996.47;5099044;27;45407;-67
2022/01/30 11:50:34;;;;;;;;;7.75;4.00;;;;;10.40;59.46;102999.16;5099559;27;45428;-67
2022/01/30 11:53:10;;;;;;;;;6.00;5.25;;;;;10.38;59.61;102994.75;5099627;27;45217;-67
2022/01/30 11:55:56;;;;;;;;;18.00;12.00;;;;;10.47;59.05;102986.09;5080938;27;46866;-68
2022/01/30 11:58:31;;;;;;;;;5.50;4.00;;;;;10.53;59.33;102980.88;5099330;27;45398;-67
2022/01/30 12:01:25;;;;;;;;;7.25;4.75;;;;;10.58;58.19;102984.50;5099669;27;45406;-67
2022/01/30 12:04:00;;;;;;;;;15.50;10.75;;;;;10.51;57.75;102965.06;5036540;28;45464;-67
2022/01/30 12:06:25;;;;;;;;;13.25;6.75;;;;;10.66;57.95;102967.03;5036002;28;46430;-67
2022/01/30 12:08:59;;;;;;;;;9.75;9.00;;;;;10.71;58.72;102969.72;5036116;28;45500;-69
2022/01/30 12:11:36;;;;;;;;;7.00;5.25;;;;;10.72;57.82;102963.59;5036441;28;45408;-65
2022/01/30 12:14:29;;;;;;;;;7.00;5.00;;;;;10.69;58.07;102972.34;5046342;28;45401;-66
2022/01/30 12:16:56;;;;;;;;;3.50;3.50;;;;;10.43;56.43;102909.66;5047592;28;46780;-65
2022/01/30 12:19:31;;;;;;;;;3.50;3.50;;;;;10.78;57.38;102948.72;5055906;28;45512;-68
2022/01/30 12:22:00;;;;;;;;;4.00;3.50;;;;;10.71;55.72;102936.34;5056072;28;45478;-64
2022/01/30 12:24:32;;;;;;;;;5.50;5.50;;;;;10.58;56.35;102898.44;5056792;28;45364;-64
2022/01/30 12:27:04;;;;;;;;;2.75;2.75;;;;;10.72;55.83;102921.44;5056157;28;46649;-64
2022/01/30 12:29:52;;;;;;;;;6.00;6.00;;;;;10.81;55.55;102932.06;5055521;28;45541;-64